• Join FlightAware (Why Join?)
  • Login
  • US Flag 
10:32PM EST


 

Airport Tracker/Info


-or-


 

Live Flight TrackerFlight Track Log ✈ BJS339 ✈ 21-Dec-2013 ✈ KDEN - CYUL

Flight Track Log - Related Links

Times and Time Zones

All times are in EST time to prevent confusion due to time zone crossing. See the BJS339 flight status page for this flight to view local times or setup timezone preferences in your user account.

Time Position Orientation Groundspeed Altitude Reporting Facility
EST Latitude Longitude Course Direction KTS MPH feet Rate Location/Type
01:16PM 39.9500 -104.6667 30° Northeast 256 295 8,000  Level Denver TRACON
01:17PM 40.0167 -104.6167 30° Northeast 243 280 9,700 1,053 Climbing Denver TRACON
01:18PM 40.0333 -104.5333 75° East 263 303 10,000 316 Climbing Denver TRACON
01:19PM 40.0500 -104.4333 78° East 297 342 10,300 545 Climbing Denver TRACON
01:20PM 40.0503 -104.3694 90° East 306 352 10,900 1,642 Climbing Denver Center
01:21PM 40.0497 -104.2489 90° East 329 379 12,900 2,250 Climbing Denver Center
01:22PM 40.0450 -104.1167 93° East 337 388 16,000 3,000 Climbing Denver Center
01:23PM 40.0258 -103.9539 99° East 371 427 19,700 3,048 Climbing Denver Center
01:24PM 40.0214 -103.8119 92° East 390 449 22,300 2,419 Climbing Denver Center
01:25PM 40.0381 -103.6675 81° East 388 447 24,700 2,256 Climbing Denver Center
01:26PM 40.0614 -103.5208 78° East 409 471 27,000 1,920 Climbing Denver Center
01:27PM 40.0856 -103.3739 78° East 413 475 28,700 1,403 Climbing Denver Center
01:28PM 40.1103 -103.2189 78° East 433 498 29,900 1,258 Climbing Denver Center
01:29PM 40.1397 -103.0303 78° East 443 510 31,300 1,258 Climbing Denver Center
01:30PM 40.1642 -102.8711 79° East 447 514 32,500 1,161 Climbing Denver Center
01:31PM 40.1892 -102.7133 78° East 445 512 33,700 1,161 Climbing Denver Center
01:32PM 40.2150 -102.5469 78° East 448 516 34,900 1,065 Climbing Denver Center
01:33PM 40.2336 -102.4200 79° East 446 513 35,900 1,065 Climbing Denver Center
01:34PM 40.2656 -102.2186 78° East 445 512 37,100 823 Climbing Denver Center
01:35PM 40.2919 -102.0389 79° East 451 519 37,600 484 Climbing Denver Center
01:37PM 40.3158 -101.8822 79° East 457 526 38,100 576 Climbing Denver Center
01:38PM 40.3381 -101.7261 79° East 457 526 38,800 432 Climbing Denver Center
01:39PM 40.3703 -101.5433 77° East 462 532 39,000 97 Climbing Denver Center
01:40PM 40.4150 -101.3853 70° East 482 555 39,000  Level Denver Center
01:41PM 40.4647 -101.1981 71° East 488 562 39,000  Level Denver Center
01:42PM 40.5078 -101.0408 70° East 482 555 39,000 145 Level Denver Center
01:43PM 40.5542 -100.8644 71° East 463 533 39,300 290 Climbing Denver Center
01:44PM 40.5950 -100.7106 71° East 470 541 39,600 339 Climbing Denver Center
01:45PM 40.6436 -100.5297 70° East 475 547 40,000 435 Climbing Denver Center
01:46PM 40.6922 -100.3467 71° East 477 549 40,500 387 Climbing Denver Center
01:47PM 40.7336 -100.1894 71° East 478 550 40,800 240 Climbing Denver Center
01:48PM 40.7808 -100.0022 72° East 482 555 41,000 96 Climbing Denver Center
01:49PM 40.8228 -99.8394 71° East 490 564 41,000  Level Denver Center
01:50PM 40.8683 -99.6656 71° East 496 571 41,000  Level Denver Center
01:51PM 40.9253 -99.5011 65° Northeast 492 566 41,000  Level Denver Center
01:52PM 40.9892 -99.3408 62° Northeast 491 565 41,000  Level Denver Center
01:53PM 41.0639 -99.1469 63° Northeast 491 565 41,000  Level Denver Center
01:54PM 41.1072 -99.0003 69° East 497 572 41,000  Level Minneapolis Center
01:55PM 41.1553 -98.7928 73° East 492 566 41,000  Level Minneapolis Center
01:56PM 41.1981 -98.6181 72° East 495 570 41,000  Level Minneapolis Center
01:57PM 41.2417 -98.4311 73° East 507 583 41,000  Level Minneapolis Center
01:58PM 41.2839 -98.2500 73° East 512 589 41,000  Level Minneapolis Center
01:59PM 41.3328 -98.0358 73° East 517 595 41,000  Level Minneapolis Center
02:00PM 41.3758 -97.8539 72° East 517 595 41,000  Level Minneapolis Center
02:01PM 41.4181 -97.6697 73° East 518 596 41,000  Level Minneapolis Center
02:02PM 41.4589 -97.4875 73° East 517 595 41,000  Level Minneapolis Center
02:03PM 41.5008 -97.3036 73° East 517 595 41,000  Level Minneapolis Center
02:05PM 41.5414 -97.1183 74° East 518 596 41,000  Level Minneapolis Center
02:06PM 41.5828 -96.9331 73° East 519 597 41,000  Level Minneapolis Center
02:07PM 41.6331 -96.7050 73° East 527 606 41,000  Level Minneapolis Center
02:08PM 41.6742 -96.5142 74° East 532 612 41,000  Level Minneapolis Center
02:09PM 41.7158 -96.3194 74° East 538 619 41,000  Level Minneapolis Center
02:10PM 41.7575 -96.1242 74° East 539 620 41,000  Level Minneapolis Center
02:11PM 41.7992 -95.9267 74° East 543 625 41,000  Level Minneapolis Center
02:12PM 41.8408 -95.7289 74° East 546 628 41,000  Level Minneapolis Center
02:13PM 41.8814 -95.5289 75° East 552 635 41,000  Level Minneapolis Center
02:14PM 41.9231 -95.3278 74° East 555 639 41,000  Level Minneapolis Center
02:15PM 41.9722 -95.0903 74° East 552 635 41,000  Level Minneapolis Center
02:16PM 42.0106 -94.8922 75° East 549 632 41,000  Level Minneapolis Center
02:17PM 42.0489 -94.6950 75° East 546 628 41,000  Level Minneapolis Center
02:18PM 42.0889 -94.4997 75° East 542 624 41,000  Level Minneapolis Center
02:19PM 42.1264 -94.3031 76° East 542 624 41,000  Level Minneapolis Center
02:20PM 42.1647 -94.1036 75° East 547 629 41,000  Level Minneapolis Center
02:21PM 42.2100 -93.8667 75° East 546 628 41,000  Level Minneapolis Center
02:22PM 42.2422 -93.6961 76° East 547 629 41,000  Level Minneapolis Center
02:23PM 42.2794 -93.4978 76° East 549 632 41,000  Level Minneapolis Center
02:24PM 42.3233 -93.2592 76° East 549 632 41,000  Level Minneapolis Center
02:25PM 42.3608 -93.0592 76° East 552 635 41,000  Level Minneapolis Center
02:26PM 42.3978 -92.8597 76° East 550 633 41,000  Level Minneapolis Center
02:27PM 42.4333 -92.6567 77° East 556 640 41,000  Level Minneapolis Center
02:28PM 42.4689 -92.4544 77° East 557 641 41,000  Level Minneapolis Center
02:29PM 42.5114 -92.2117 77° East 557 641 41,000  Level Minneapolis Center
02:30PM 42.5464 -92.0067 77° East 561 646 41,000  Level Minneapolis Center
02:31PM 42.5808 -91.8025 77° East 563 648 41,000  Level Minneapolis Center
02:32PM 42.6150 -91.6006 77° East 564 649 41,000  Level Minneapolis Center
02:33PM 42.6550 -91.3589 77° East 565 650 41,000  Level Minneapolis Center
02:34PM 42.6872 -91.1550 78° East 562 647 41,000  Level Minneapolis Center
02:36PM 42.7211 -90.9492 77° East 564 649 41,000  Level Minneapolis Center
02:37PM 42.7531 -90.7411 78° East 565 650 41,000  Level Minneapolis Center
02:38PM 42.7864 -90.5331 78° East 566 651 41,000  Level Minneapolis Center
02:39PM 42.8242 -90.2833 78° East 565 650 41,000  Level Minneapolis Center
02:40PM 42.8592 -90.0878 76° East 561 646 41,000  Level Minneapolis Center
02:41PM 42.8919 -89.8806 78° East 560 644 41,000  Level Minneapolis Center
02:42PM 42.9314 -89.5842 80° East 564 649 41,000  Level Chicago Center
02:43PM 42.9628 -89.3747 78° East 564 649 41,000  Level Chicago Center
02:44PM 42.9928 -89.1656 79° East 564 649 41,000  Level Chicago Center
02:45PM 43.0228 -88.9547 79° East 567 652 41,000  Level Chicago Center
02:46PM 43.0536 -88.7442 79° East 570 656 41,000  Level Chicago Center
02:47PM 43.0822 -88.4928 81° East 565 650 41,000  Level Chicago Center
02:48PM 43.1036 -88.2819 82° East 565 650 41,000  Level Chicago Center
02:49PM 43.1250 -88.0697 82° East 570 656 41,000  Level Chicago Center
02:50PM 43.1461 -87.8592 82° East 565 650 41,000  Level Chicago Center
02:51PM 43.1661 -87.6464 83° East 567 652 41,000  Level Chicago Center
02:52PM 43.1878 -87.4322 82° East 569 655 41,000  Level Chicago Center
02:53PM 43.2100 -87.2006 82° East 570 656 41,000  Level Chicago Center
02:54PM 43.2300 -86.9844 83° East 572 658 41,000  Level Chicago Center
02:55PM 43.2486 -86.7689 83° East 570 656 41,000  Level Chicago Center
02:56PM 43.2689 -86.5531 83° East 570 656 41,000  Level Chicago Center
02:57PM 43.2911 -86.2917 83° East 572 658 41,000  Level Chicago Center
02:58PM 43.3092 -86.0717 83° East 573 659 41,000  Level Chicago Center
02:59PM 43.3272 -85.8519 83° East 572 658 41,000  Level Chicago Center
03:00PM 43.3439 -85.6344 84° East 569 655 41,000  Level Chicago Center
03:01PM 43.3611 -85.4211 84° East 563 648 41,000  Level Chicago Center
03:03PM 43.3781 -85.2061 84° East 565 650 41,000  Level Chicago Center
03:04PM 43.3931 -84.9897 84° East 567 652 41,000  Level Chicago Center
03:05PM 43.4100 -84.7725 84° East 569 655 41,000  Level Chicago Center
03:06PM 43.4242 -84.5553 85° East 571 657 41,000  Level Chicago Center
03:06PM 43.4356 -84.3803 85° East 571 657 41,000  Level Cleveland Center
03:07PM 43.4508 -84.1628 84° East 572 658 41,000  Level Cleveland Center
03:08PM 43.4642 -83.9400 85° East 574 661 41,000  Level Cleveland Center
03:09PM 43.4781 -83.7208 85° East 574 661 41,000  Level Cleveland Center
03:10PM 43.4917 -83.5017 85° East 573 659 41,000  Level Cleveland Center
03:11PM 43.5069 -83.2369 85° East 576 663 41,000  Level Cleveland Center
03:13PM 43.5181 -83.0169 86° East 575 662 41,000  Level Cleveland Center
03:14PM 43.5306 -82.7964 85° East 577 664 41,000  Level Cleveland Center
03:15PM 43.5431 -82.5753 85° East 578 665 41,000  Level Cleveland Center
03:16PM 43.5539 -82.3528 86° East 580 667 41,000  Level Cleveland Center
03:17PM 43.5650 -82.1319 86° East 579 666 41,000  Level Cleveland Center
03:18PM 43.5667 -81.7667 90° East 580 667 41,000  Level Toronto Center
03:19PM 43.5833 -81.5667 83° East 580 667 41,000  Level Toronto Center
03:20PM 43.5833 -81.3333 90° East 580 667 41,000  Level Toronto Center
03:21PM 43.6000 -81.1000 84° East 580 667 41,000  Level Toronto Center
03:22PM 43.6000 -80.9000 90° East 590 679 41,000  Level Toronto Center
03:23PM 43.6167 -80.6667 84° East 590 679 41,000  Level Toronto Center
03:24PM 43.6333 -80.4333 84° East 590 679 41,000  Level Toronto Center
03:25PM 43.6333 -80.2333 90° East 590 679 41,000  Level Toronto Center
03:26PM 43.6333 -79.9833 90° East 580 667 41,000  Level Toronto Center
03:27PM 43.6500 -79.8000 83° East 580 667 41,000  Level Toronto Center
03:28PM 43.6833 -79.5333 80° East 580 667 41,000  Level Toronto Center
03:29PM 43.7333 -79.3500 69° East 570 656 41,000  Level Toronto Center
03:30PM 43.8000 -79.1500 65° Northeast 570 656 41,000  Level Toronto Center
03:31PM 43.8667 -78.9333 67° East 570 656 41,000  Level Toronto Center
03:32PM 43.9333 -78.7333 65° Northeast 570 656 41,000  Level Toronto Center
03:33PM 43.9833 -78.5500 69° East 570 656 41,000  Level Toronto Center
03:34PM 44.0333 -78.3333 72° East 570 656 41,000  Level Toronto Center
03:35PM 44.0833 -78.1167 72° East 570 656 41,000  Level Toronto Center
03:36PM 44.1500 -77.9167 65° Northeast 570 656 41,000  Level Toronto Center
03:37PM 44.2167 -77.7000 67° East 570 656 41,000  Level Toronto Center
03:38PM 44.2667 -77.5167 69° East 580 667 41,000  Level Toronto Center
03:39PM 44.3167 -77.3000 72° East 580 667 41,000  Level Toronto Center
03:40PM 44.3833 -77.0667 68° East 580 667 41,000  Level Toronto Center
03:41PM 44.4167 -76.9833 61° Northeast 570 656 41,000  Level Montreal Center
03:42PM 44.4833 -76.7500 68° East 570 656 41,000  Level Montreal Center
03:43PM 44.5333 -76.5500 71° East 570 656 41,000 -50 Level Montreal Center
03:44PM 44.5833 -76.3500 71° East 570 656 40,900 -750 Descending Montreal Center
03:45PM 44.6500 -76.1333 67° East 580 667 39,500 -1,850 Descending Montreal Center
03:46PM 44.7000 -75.9167 72° East 580 667 37,200 -3,500 Descending Montreal Center
03:47PM 44.7667 -75.7167 65° Northeast 570 656 32,500 -4,000 Descending Montreal Center
03:48PM 44.8167 -75.5167 71° East 550 633 29,200 -3,700 Descending Montreal Center
03:49PM 44.8667 -75.3333 69° East 500 575 25,100 -3,950 Descending Montreal Center
03:50PM 44.9000 -75.1667 74° East 460 529 21,300 -4,000 Descending Montreal Center
03:51PM 44.9500 -75.0000 67° East 430 495 17,100 -4,050 Descending Montreal Center
03:52PM 45.0500 -74.9500 19° North 350 403 13,200 -3,600 Descending Montreal Center
03:53PM 45.1167 -74.9000 28° Northeast 340 391 9,900 -2,400 Descending Montreal Center
03:54PM 45.1333 -74.7833 79° East 310 357 8,400 -950 Descending Montreal Center
03:55PM 45.1500 -74.6667 79° East 290 334 8,000 -250 Descending Montreal Center
03:56PM 45.1833 -74.5500 68° East 290 334 7,900  Descending Montreal Center
03:57PM 45.2000 -74.4500 77° East 290 334 8,000 -300 Climbing Montreal Center
03:58PM 45.2167 -74.3333 78° East 290 334 7,300 -1,100 Descending Montreal Center
03:59PM 45.2333 -74.2333 77° East 290 334 5,800 -1,500 Descending Montreal Center
04:00PM 45.2500 -74.1167 78° East 270 311 4,300 -1,400 Descending Montreal Center
04:01PM 45.2667 -74.0333 74° East 230 265 3,000 -650 Descending Montreal Center
04:02PM 45.2833 -73.9667 70° East 190 219 3,000  Level Montreal Center
04:03PM 45.3167 -73.9000 55° Northeast 180 207 3,000 -100 Level Montreal Center
04:04PM 45.3500 -73.8500 47° Northeast 160 184 2,800 -550 Descending Montreal Center
04:05PM 45.3833 -73.8167 35° Northeast 140 161 1,900 -750 Descending Montreal Center
04:06PM 45.4000 -73.8000 35° Northeast 120 138 1,300 -700 Descending Montreal Center
04:07PM 45.4333 -73.7500 46° Northeast 120 138 500 -600 Descending Montreal Center
04:08PM 45.4500 -73.7167 55° Northeast 70 81 100 -200 Descending Montreal Center
04:09PM 45.4667 -73.7000 35° Northeast 30 35 100  Level Montreal Center